sensor_id;sensor_type;location;lat;lon;timestamp;temperature;humidity
59572;DHT22;70118;45.638;11.714;2023-07-24T00:01:32;29.60;81.70
59572;DHT22;70118;45.638;11.714;2023-07-24T00:03:58;29.50;81.60
59572;DHT22;70118;45.638;11.714;2023-07-24T00:06:24;29.50;81.70
59572;DHT22;70118;45.638;11.714;2023-07-24T00:08:50;29.50;81.70
59572;DHT22;70118;45.638;11.714;2023-07-24T00:11:16;29.60;81.70
59572;DHT22;70118;45.638;11.714;2023-07-24T00:13:42;29.60;81.70
59572;DHT22;70118;45.638;11.714;2023-07-24T00:16:08;29.50;81.70
59572;DHT22;70118;45.638;11.714;2023-07-24T00:18:34;29.50;81.70
59572;DHT22;70118;45.638;11.714;2023-07-24T00:21:00;29.50;81.50
59572;DHT22;70118;45.638;11.714;2023-07-24T00:23:26;29.60;81.50
59572;DHT22;70118;45.638;11.714;2023-07-24T00:25:52;29.50;81.50
59572;DHT22;70118;45.638;11.714;2023-07-24T00:28:19;29.50;81.50
59572;DHT22;70118;45.638;11.714;2023-07-24T00:30:45;29.50;81.60
59572;DHT22;70118;45.638;11.714;2023-07-24T00:33:11;29.50;81.60
59572;DHT22;70118;45.638;11.714;2023-07-24T00:35:37;29.50;81.60
59572;DHT22;70118;45.638;11.714;2023-07-24T00:38:03;29.60;81.60
59572;DHT22;70118;45.638;11.714;2023-07-24T00:40:29;29.40;81.50
59572;DHT22;70118;45.638;11.714;2023-07-24T00:42:55;29.60;81.60
59572;DHT22;70118;45.638;11.714;2023-07-24T00:45:22;29.50;81.60
59572;DHT22;70118;45.638;11.714;2023-07-24T00:47:48;29.40;81.60
59572;DHT22;70118;45.638;11.714;2023-07-24T00:50:14;29.50;81.70
59572;DHT22;70118;45.638;11.714;2023-07-24T00:52:40;29.50;81.70
59572;DHT22;70118;45.638;11.714;2023-07-24T00:55:07;29.50;81.70
59572;DHT22;70118;45.638;11.714;2023-07-24T00:57:34;29.50;81.70
59572;DHT22;70118;45.638;11.714;2023-07-24T01:00:00;29.50;81.70
59572;DHT22;70118;45.638;11.714;2023-07-24T01:02:27;29.60;81.70
59572;DHT22;70118;45.638;11.714;2023-07-24T01:04:53;29.50;81.70
59572;DHT22;70118;45.638;11.714;2023-07-24T01:07:20;29.50;81.80
59572;DHT22;70118;45.638;11.714;2023-07-24T01:09:46;29.50;81.80
59572;DHT22;70118;45.638;11.714;2023-07-24T01:12:35;29.40;81.90
59572;DHT22;70118;45.638;11.714;2023-07-24T01:15:13;29.50;81.90
59572;DHT22;70118;45.638;11.714;2023-07-24T01:17:46;29.50;81.80
59572;DHT22;70118;45.638;11.714;2023-07-24T01:20:15;29.50;81.70
59572;DHT22;70118;45.638;11.714;2023-07-24T01:23:24;29.50;81.50
59572;DHT22;70118;45.638;11.714;2023-07-24T01:26:00;29.40;81.70
59572;DHT22;70118;45.638;11.714;2023-07-24T01:28:28;29.50;81.70
59572;DHT22;70118;45.638;11.714;2023-07-24T01:30:54;29.50;81.60
59572;DHT22;70118;45.638;11.714;2023-07-24T01:33:21;29.40;81.60
59572;DHT22;70118;45.638;11.714;2023-07-24T01:35:57;29.40;81.50
59572;DHT22;70118;45.638;11.714;2023-07-24T01:38:26;29.40;81.60
59572;DHT22;70118;45.638;11.714;2023-07-24T01:40:53;29.40;81.60
59572;DHT22;70118;45.638;11.714;2023-07-24T01:43:19;29.40;81.50
59572;DHT22;70118;45.638;11.714;2023-07-24T01:45:45;29.40;81.70
59572;DHT22;70118;45.638;11.714;2023-07-24T01:48:11;29.40;81.70
59572;DHT22;70118;45.638;11.714;2023-07-24T01:50:37;29.50;81.70
59572;DHT22;70118;45.638;11.714;2023-07-24T01:53:03;29.40;81.70
59572;DHT22;70118;45.638;11.714;2023-07-24T01:55:29;29.40;81.80
59572;DHT22;70118;45.638;11.714;2023-07-24T01:57:54;29.40;81.70
59572;DHT22;70118;45.638;11.714;2023-07-24T02:00:20;29.50;81.80
59572;DHT22;70118;45.638;11.714;2023-07-24T02:02:46;29.40;81.60
59572;DHT22;70118;45.638;11.714;2023-07-24T02:05:12;29.40;81.60
59572;DHT22;70118;45.638;11.714;2023-07-24T02:07:38;29.30;81.70
59572;DHT22;70118;45.638;11.714;2023-07-24T02:10:04;29.40;81.60
59572;DHT22;70118;45.638;11.714;2023-07-24T02:12:30;29.40;81.60
59572;DHT22;70118;45.638;11.714;2023-07-24T02:14:56;29.40;81.40
59572;DHT22;70118;45.638;11.714;2023-07-24T02:17:23;29.40;81.40
59572;DHT22;70118;45.638;11.714;2023-07-24T02:19:49;29.40;81.40
59572;DHT22;70118;45.638;11.714;2023-07-24T02:22:15;29.40;81.40
59572;DHT22;70118;45.638;11.714;2023-07-24T02:24:41;29.40;81.40
59572;DHT22;70118;45.638;11.714;2023-07-24T02:27:07;29.40;81.50
59572;DHT22;70118;45.638;11.714;2023-07-24T02:29:33;29.40;81.60
59572;DHT22;70118;45.638;11.714;2023-07-24T02:32:00;29.40;81.50
59572;DHT22;70118;45.638;11.714;2023-07-24T02:34:26;29.30;81.40
59572;DHT22;70118;45.638;11.714;2023-07-24T02:36:53;29.30;81.60
59572;DHT22;70118;45.638;11.714;2023-07-24T02:39:20;29.30;81.60
59572;DHT22;70118;45.638;11.714;2023-07-24T02:41:49;29.30;81.40
59572;DHT22;70118;45.638;11.714;2023-07-24T02:44:15;29.40;81.50
59572;DHT22;70118;45.638;11.714;2023-07-24T02:46:40;29.40;81.60
59572;DHT22;70118;45.638;11.714;2023-07-24T02:49:07;29.30;81.40
59572;DHT22;70118;45.638;11.714;2023-07-24T02:51:33;29.40;81.60
59572;DHT22;70118;45.638;11.714;2023-07-24T02:53:59;29.30;81.50
59572;DHT22;70118;45.638;11.714;2023-07-24T02:56:25;29.40;81.40
59572;DHT22;70118;45.638;11.714;2023-07-24T02:58:51;29.30;81.50
59572;DHT22;70118;45.638;11.714;2023-07-24T03:01:17;29.30;81.50
59572;DHT22;70118;45.638;11.714;2023-07-24T03:03:43;29.30;81.40
59572;DHT22;70118;45.638;11.714;2023-07-24T03:06:09;29.30;81.40
59572;DHT22;70118;45.638;11.714;2023-07-24T03:08:35;29.30;81.50
59572;DHT22;70118;45.638;11.714;2023-07-24T03:11:04;29.40;81.40
59572;DHT22;70118;45.638;11.714;2023-07-24T03:13:30;29.30;81.50
59572;DHT22;70118;45.638;11.714;2023-07-24T03:15:58;29.30;81.50
59572;DHT22;70118;45.638;11.714;2023-07-24T03:18:24;29.30;81.60
59572;DHT22;70118;45.638;11.714;2023-07-24T03:20:50;29.30;81.40
59572;DHT22;70118;45.638;11.714;2023-07-24T03:23:16;29.30;81.60
59572;DHT22;70118;45.638;11.714;2023-07-24T03:25:42;29.30;81.50
59572;DHT22;70118;45.638;11.714;2023-07-24T03:28:08;29.20;81.50
59572;DHT22;70118;45.638;11.714;2023-07-24T03:30:34;29.20;81.50
59572;DHT22;70118;45.638;11.714;2023-07-24T03:33:01;29.30;81.40
59572;DHT22;70118;45.638;11.714;2023-07-24T03:35:27;29.30;81.50
59572;DHT22;70118;45.638;11.714;2023-07-24T03:37:53;29.30;81.60
59572;DHT22;70118;45.638;11.714;2023-07-24T03:40:19;29.20;81.50
59572;DHT22;70118;45.638;11.714;2023-07-24T03:42:45;29.20;81.50
59572;DHT22;70118;45.638;11.714;2023-07-24T03:45:11;29.20;81.50
59572;DHT22;70118;45.638;11.714;2023-07-24T03:47:36;29.30;81.60
59572;DHT22;70118;45.638;11.714;2023-07-24T03:50:02;29.20;81.40
59572;DHT22;70118;45.638;11.714;2023-07-24T03:52:28;29.30;81.50
59572;DHT22;70118;45.638;11.714;2023-07-24T03:54:54;29.20;81.50
59572;DHT22;70118;45.638;11.714;2023-07-24T03:57:20;29.30;81.40
59572;DHT22;70118;45.638;11.714;2023-07-24T03:59:46;29.30;81.30
59572;DHT22;70118;45.638;11.714;2023-07-24T04:02:12;29.20;81.30
59572;DHT22;70118;45.638;11.714;2023-07-24T04:04:38;29.20;81.30
59572;DHT22;70118;45.638;11.714;2023-07-24T04:07:04;29.20;81.30
59572;DHT22;70118;45.638;11.714;2023-07-24T04:09:30;29.30;81.40
59572;DHT22;70118;45.638;11.714;2023-07-24T04:11:56;29.20;81.20
59572;DHT22;70118;45.638;11.714;2023-07-24T04:14:22;29.20;81.40
59572;DHT22;70118;45.638;11.714;2023-07-24T04:16:48;29.20;81.30
59572;DHT22;70118;45.638;11.714;2023-07-24T04:19:14;29.20;81.20
59572;DHT22;70118;45.638;11.714;2023-07-24T04:21:39;29.20;81.20
59572;DHT22;70118;45.638;11.714;2023-07-24T04:24:05;29.20;81.20
59572;DHT22;70118;45.638;11.714;2023-07-24T04:26:31;29.10;81.10
59572;DHT22;70118;45.638;11.714;2023-07-24T04:28:57;29.20;81.30
59572;DHT22;70118;45.638;11.714;2023-07-24T04:31:23;29.20;81.40
59572;DHT22;70118;45.638;11.714;2023-07-24T04:33:49;29.20;81.30
59572;DHT22;70118;45.638;11.714;2023-07-24T04:36:15;29.20;81.30
59572;DHT22;70118;45.638;11.714;2023-07-24T04:38:40;29.20;81.30
59572;DHT22;70118;45.638;11.714;2023-07-24T04:41:06;29.10;81.50
59572;DHT22;70118;45.638;11.714;2023-07-24T04:43:32;29.20;81.50
59572;DHT22;70118;45.638;11.714;2023-07-24T04:45:58;29.20;81.40
59572;DHT22;70118;45.638;11.714;2023-07-24T04:48:24;29.20;81.60
59572;DHT22;70118;45.638;11.714;2023-07-24T04:50:54;29.10;81.50
59572;DHT22;70118;45.638;11.714;2023-07-24T04:53:20;29.20;81.60
59572;DHT22;70118;45.638;11.714;2023-07-24T04:55:46;29.20;81.60
59572;DHT22;70118;45.638;11.714;2023-07-24T04:58:12;29.20;81.50
59572;DHT22;70118;45.638;11.714;2023-07-24T05:00:38;29.20;81.60
59572;DHT22;70118;45.638;11.714;2023-07-24T05:03:04;29.20;81.50
59572;DHT22;70118;45.638;11.714;2023-07-24T05:05:32;29.10;81.50
59572;DHT22;70118;45.638;11.714;2023-07-24T05:07:57;29.20;81.50
59572;DHT22;70118;45.638;11.714;2023-07-24T05:10:23;29.20;81.70
59572;DHT22;70118;45.638;11.714;2023-07-24T05:12:49;29.30;81.90
59572;DHT22;70118;45.638;11.714;2023-07-24T05:15:15;29.20;81.70
59572;DHT22;70118;45.638;11.714;2023-07-24T05:17:43;29.20;81.80
59572;DHT22;70118;45.638;11.714;2023-07-24T05:20:09;29.30;81.80
59572;DHT22;70118;45.638;11.714;2023-07-24T05:22:35;29.20;82.10
59572;DHT22;70118;45.638;11.714;2023-07-24T05:25:01;29.20;82.10
59572;DHT22;70118;45.638;11.714;2023-07-24T05:27:27;29.30;82.20
59572;DHT22;70118;45.638;11.714;2023-07-24T05:29:53;29.20;82.10
59572;DHT22;70118;45.638;11.714;2023-07-24T05:32:19;29.10;82.30
59572;DHT22;70118;45.638;11.714;2023-07-24T05:34:44;29.20;82.40
59572;DHT22;70118;45.638;11.714;2023-07-24T05:37:10;29.30;82.60
59572;DHT22;70118;45.638;11.714;2023-07-24T05:39:36;29.30;82.50
59572;DHT22;70118;45.638;11.714;2023-07-24T05:42:02;29.20;82.30
59572;DHT22;70118;45.638;11.714;2023-07-24T05:44:29;29.30;82.30
59572;DHT22;70118;45.638;11.714;2023-07-24T05:46:54;29.30;82.40
59572;DHT22;70118;45.638;11.714;2023-07-24T05:49:20;29.30;82.50
59572;DHT22;70118;45.638;11.714;2023-07-24T05:51:46;29.30;82.70
59572;DHT22;70118;45.638;11.714;2023-07-24T05:54:12;29.20;82.60
59572;DHT22;70118;45.638;11.714;2023-07-24T05:56:38;29.20;82.80
59572;DHT22;70118;45.638;11.714;2023-07-24T05:59:05;29.30;83.10
59572;DHT22;70118;45.638;11.714;2023-07-24T06:01:31;29.30;83.50
59572;DHT22;70118;45.638;11.714;2023-07-24T06:03:58;29.30;83.80
59572;DHT22;70118;45.638;11.714;2023-07-24T06:06:24;29.30;84.10
59572;DHT22;70118;45.638;11.714;2023-07-24T06:08:52;29.30;84.50
59572;DHT22;70118;45.638;11.714;2023-07-24T06:11:18;29.20;85.00
59572;DHT22;70118;45.638;11.714;2023-07-24T06:13:46;29.20;85.40
59572;DHT22;70118;45.638;11.714;2023-07-24T06:16:15;29.00;86.70
59572;DHT22;70118;45.638;11.714;2023-07-24T06:18:43;29.00;86.60
59572;DHT22;70118;45.638;11.714;2023-07-24T06:21:12;28.90;88.60
59572;DHT22;70118;45.638;11.714;2023-07-24T06:23:38;28.90;87.70
59572;DHT22;70118;45.638;11.714;2023-07-24T06:26:04;28.90;87.30
59572;DHT22;70118;45.638;11.714;2023-07-24T06:28:30;28.90;87.00
59572;DHT22;70118;45.638;11.714;2023-07-24T06:30:57;29.00;88.60
59572;DHT22;70118;45.638;11.714;2023-07-24T06:33:23;28.80;90.30
59572;DHT22;70118;45.638;11.714;2023-07-24T06:35:50;28.80;90.10
59572;DHT22;70118;45.638;11.714;2023-07-24T06:38:17;28.80;89.40
59572;DHT22;70118;45.638;11.714;2023-07-24T06:40:43;28.90;88.90
59572;DHT22;70118;45.638;11.714;2023-07-24T06:43:09;29.00;88.30
59572;DHT22;70118;45.638;11.714;2023-07-24T06:45:35;29.00;88.00
59572;DHT22;70118;45.638;11.714;2023-07-24T06:48:01;29.00;87.80
59572;DHT22;70118;45.638;11.714;2023-07-24T06:50:27;29.10;87.80
59572;DHT22;70118;45.638;11.714;2023-07-24T06:52:58;29.00;88.00
59572;DHT22;70118;45.638;11.714;2023-07-24T06:55:25;29.00;87.90
59572;DHT22;70118;45.638;11.714;2023-07-24T06:57:54;29.00;88.80
59572;DHT22;70118;45.638;11.714;2023-07-24T07:00:28;29.00;88.40
59572;DHT22;70118;45.638;11.714;2023-07-24T07:02:54;29.10;87.90
59572;DHT22;70118;45.638;11.714;2023-07-24T07:05:20;29.00;87.90
59572;DHT22;70118;45.638;11.714;2023-07-24T07:07:47;29.10;88.60
59572;DHT22;70118;45.638;11.714;2023-07-24T07:10:14;29.10;88.40
59572;DHT22;70118;45.638;11.714;2023-07-24T07:12:40;29.10;88.10
59572;DHT22;70118;45.638;11.714;2023-07-24T07:15:07;29.10;88.20
59572;DHT22;70118;45.638;11.714;2023-07-24T07:17:33;29.20;88.20
59572;DHT22;70118;45.638;11.714;2023-07-24T07:19:59;29.20;88.20
59572;DHT22;70118;45.638;11.714;2023-07-24T07:22:26;29.20;88.80
59572;DHT22;70118;45.638;11.714;2023-07-24T07:24:52;29.10;90.00
59572;DHT22;70118;45.638;11.714;2023-07-24T07:27:18;29.10;89.80
59572;DHT22;70118;45.638;11.714;2023-07-24T07:29:44;29.10;89.50
59572;DHT22;70118;45.638;11.714;2023-07-24T07:32:10;29.10;89.60
59572;DHT22;70118;45.638;11.714;2023-07-24T07:34:36;29.20;89.30
59572;DHT22;70118;45.638;11.714;2023-07-24T07:37:05;29.20;88.80
59572;DHT22;70118;45.638;11.714;2023-07-24T07:39:32;29.30;88.70
59572;DHT22;70118;45.638;11.714;2023-07-24T07:41:58;29.30;89.10
59572;DHT22;70118;45.638;11.714;2023-07-24T07:44:31;29.30;89.30
59572;DHT22;70118;45.638;11.714;2023-07-24T07:47:09;29.30;90.00
59572;DHT22;70118;45.638;11.714;2023-07-24T07:49:40;29.30;89.10
59572;DHT22;70118;45.638;11.714;2023-07-24T07:52:17;29.30;88.80
59572;DHT22;70118;45.638;11.714;2023-07-24T07:54:58;29.30;88.80
59572;DHT22;70118;45.638;11.714;2023-07-24T07:57:24;29.30;88.70
59572;DHT22;70118;45.638;11.714;2023-07-24T07:59:51;29.40;88.50
59572;DHT22;70118;45.638;11.714;2023-07-24T08:02:19;29.40;88.80
59572;DHT22;70118;45.638;11.714;2023-07-24T08:04:46;29.40;88.80
59572;DHT22;70118;45.638;11.714;2023-07-24T08:07:12;29.40;88.80
59572;DHT22;70118;45.638;11.714;2023-07-24T08:09:38;29.40;89.10
59572;DHT22;70118;45.638;11.714;2023-07-24T08:12:05;29.50;89.60
59572;DHT22;70118;45.638;11.714;2023-07-24T08:14:31;29.30;90.40
59572;DHT22;70118;45.638;11.714;2023-07-24T08:16:57;29.20;92.40
59572;DHT22;70118;45.638;11.714;2023-07-24T08:19:23;29.20;94.50
59572;DHT22;70118;45.638;11.714;2023-07-24T08:21:53;29.00;95.30
59572;DHT22;70118;45.638;11.714;2023-07-24T08:24:19;29.00;96.90
59572;DHT22;70118;45.638;11.714;2023-07-24T08:26:45;29.10;95.50
59572;DHT22;70118;45.638;11.714;2023-07-24T08:29:12;29.10;94.10
59572;DHT22;70118;45.638;11.714;2023-07-24T08:31:38;29.20;92.90
59572;DHT22;70118;45.638;11.714;2023-07-24T08:34:04;29.30;93.10
59572;DHT22;70118;45.638;11.714;2023-07-24T08:36:31;29.30;93.40
59572;DHT22;70118;45.638;11.714;2023-07-24T08:38:57;29.30;93.80
59572;DHT22;70118;45.638;11.714;2023-07-24T08:41:24;29.30;93.90
59572;DHT22;70118;45.638;11.714;2023-07-24T08:43:50;29.30;96.10
59572;DHT22;70118;45.638;11.714;2023-07-24T08:46:18;29.20;96.10
59572;DHT22;70118;45.638;11.714;2023-07-24T08:48:45;29.30;97.30
59572;DHT22;70118;45.638;11.714;2023-07-24T08:51:13;29.30;96.40
59572;DHT22;70118;45.638;11.714;2023-07-24T08:53:43;29.30;96.80
59572;DHT22;70118;45.638;11.714;2023-07-24T08:56:11;29.20;97.10
59572;DHT22;70118;45.638;11.714;2023-07-24T08:58:40;29.20;96.70
59572;DHT22;70118;45.638;11.714;2023-07-24T09:01:07;29.20;95.00
59572;DHT22;70118;45.638;11.714;2023-07-24T09:03:34;29.30;93.60
59572;DHT22;70118;45.638;11.714;2023-07-24T09:06:01;29.30;92.70
59572;DHT22;70118;45.638;11.714;2023-07-24T09:08:30;29.30;92.80
59572;DHT22;70118;45.638;11.714;2023-07-24T09:11:06;29.30;92.10
59572;DHT22;70118;45.638;11.714;2023-07-24T09:13:43;29.40;91.80
59572;DHT22;70118;45.638;11.714;2023-07-24T09:16:26;29.40;91.80
59572;DHT22;70118;45.638;11.714;2023-07-24T09:18:53;29.50;91.60
59572;DHT22;70118;45.638;11.714;2023-07-24T09:21:29;29.50;91.60
59572;DHT22;70118;45.638;11.714;2023-07-24T09:23:56;29.50;92.30
59572;DHT22;70118;45.638;11.714;2023-07-24T09:26:23;29.50;92.60
59572;DHT22;70118;45.638;11.714;2023-07-24T09:28:53;29.50;93.10
59572;DHT22;70118;45.638;11.714;2023-07-24T09:31:19;29.50;92.50
59572;DHT22;70118;45.638;11.714;2023-07-24T09:33:46;29.60;92.40
59572;DHT22;70118;45.638;11.714;2023-07-24T09:36:12;29.60;92.30
59572;DHT22;70118;45.638;11.714;2023-07-24T09:38:39;29.60;92.40
59572;DHT22;70118;45.638;11.714;2023-07-24T09:41:07;29.70;92.60
59572;DHT22;70118;45.638;11.714;2023-07-24T09:43:36;29.70;92.50
59572;DHT22;70118;45.638;11.714;2023-07-24T09:46:04;29.60;92.60
59572;DHT22;70118;45.638;11.714;2023-07-24T09:48:31;29.60;92.20
59572;DHT22;70118;45.638;11.714;2023-07-24T09:50:59;29.60;92.20
59572;DHT22;70118;45.638;11.714;2023-07-24T09:53:49;29.60;92.20
59572;DHT22;70118;45.638;11.714;2023-07-24T09:56:19;29.60;93.60
59572;DHT22;70118;45.638;11.714;2023-07-24T09:58:52;29.60;92.10
59572;DHT22;70118;45.638;11.714;2023-07-24T10:01:21;29.70;91.90
59572;DHT22;70118;45.638;11.714;2023-07-24T10:03:48;29.80;91.80
59572;DHT22;70118;45.638;11.714;2023-07-24T10:06:17;29.80;91.90
59572;DHT22;70118;45.638;11.714;2023-07-24T10:08:44;29.80;91.90
59572;DHT22;70118;45.638;11.714;2023-07-24T10:11:13;29.80;91.60
59572;DHT22;70118;45.638;11.714;2023-07-24T10:13:39;29.70;92.00
59572;DHT22;70118;45.638;11.714;2023-07-24T10:16:06;29.70;92.00
59572;DHT22;70118;45.638;11.714;2023-07-24T10:18:33;29.70;92.00
59572;DHT22;70118;45.638;11.714;2023-07-24T10:21:08;29.70;92.10
59572;DHT22;70118;45.638;11.714;2023-07-24T10:23:35;29.80;92.30
59572;DHT22;70118;45.638;11.714;2023-07-24T10:26:06;29.70;92.20
59572;DHT22;70118;45.638;11.714;2023-07-24T10:28:33;29.80;92.30
59572;DHT22;70118;45.638;11.714;2023-07-24T10:31:01;29.70;92.10
59572;DHT22;70118;45.638;11.714;2023-07-24T10:33:30;29.60;92.30
59572;DHT22;70118;45.638;11.714;2023-07-24T10:36:07;29.70;92.00
59572;DHT22;70118;45.638;11.714;2023-07-24T10:38:39;29.70;92.70
59572;DHT22;70118;45.638;11.714;2023-07-24T10:41:06;29.70;92.10
59572;DHT22;70118;45.638;11.714;2023-07-24T10:43:45;29.70;91.70
59572;DHT22;70118;45.638;11.714;2023-07-24T10:46:13;29.60;93.30
59572;DHT22;70118;45.638;11.714;2023-07-24T10:48:43;29.60;93.90
59572;DHT22;70118;45.638;11.714;2023-07-24T10:51:10;29.60;94.70
59572;DHT22;70118;45.638;11.714;2023-07-24T10:53:43;29.70;93.20
59572;DHT22;70118;45.638;11.714;2023-07-24T10:56:11;29.60;93.30
59572;DHT22;70118;45.638;11.714;2023-07-24T10:58:37;29.70;92.70
59572;DHT22;70118;45.638;11.714;2023-07-24T11:01:06;29.70;92.30
59572;DHT22;70118;45.638;11.714;2023-07-24T11:03:35;29.70;92.40
59572;DHT22;70118;45.638;11.714;2023-07-24T11:06:02;29.70;92.20
59572;DHT22;70118;45.638;11.714;2023-07-24T11:08:29;29.70;92.30
59572;DHT22;70118;45.638;11.714;2023-07-24T11:10:57;29.70;93.10
59572;DHT22;70118;45.638;11.714;2023-07-24T11:13:26;29.70;93.10
59572;DHT22;70118;45.638;11.714;2023-07-24T11:15:53;29.70;92.90
59572;DHT22;70118;45.638;11.714;2023-07-24T11:18:21;29.70;92.90
59572;DHT22;70118;45.638;11.714;2023-07-24T11:20:55;29.70;92.90
59572;DHT22;70118;45.638;11.714;2023-07-24T11:23:21;29.80;94.30
59572;DHT22;70118;45.638;11.714;2023-07-24T11:25:50;29.70;93.20
59572;DHT22;70118;45.638;11.714;2023-07-24T11:28:17;29.60;96.60
59572;DHT22;70118;45.638;11.714;2023-07-24T11:30:43;29.60;96.30
59572;DHT22;70118;45.638;11.714;2023-07-24T11:33:11;29.50;94.90
59572;DHT22;70118;45.638;11.714;2023-07-24T11:35:38;29.60;93.90
59572;DHT22;70118;45.638;11.714;2023-07-24T11:38:06;29.60;93.50
59572;DHT22;70118;45.638;11.714;2023-07-24T11:40:39;29.70;94.50
59572;DHT22;70118;45.638;11.714;2023-07-24T11:43:06;29.70;93.80
59572;DHT22;70118;45.638;11.714;2023-07-24T11:45:43;29.70;94.40
59572;DHT22;70118;45.638;11.714;2023-07-24T11:48:10;29.70;94.60
59572;DHT22;70118;45.638;11.714;2023-07-24T11:50:46;29.60;94.50
59572;DHT22;70118;45.638;11.714;2023-07-24T11:53:32;29.70;96.80
59572;DHT22;70118;45.638;11.714;2023-07-24T11:55:59;29.60;94.60
59572;DHT22;70118;45.638;11.714;2023-07-24T11:58:29;29.80;94.30
59572;DHT22;70118;45.638;11.714;2023-07-24T12:00:58;29.70;94.10
59572;DHT22;70118;45.638;11.714;2023-07-24T12:03:29;29.80;93.40
59572;DHT22;70118;45.638;11.714;2023-07-24T12:05:57;29.80;93.00
59572;DHT22;70118;45.638;11.714;2023-07-24T12:08:32;29.80;93.10
59572;DHT22;70118;45.638;11.714;2023-07-24T12:11:01;29.80;94.00
59572;DHT22;70118;45.638;11.714;2023-07-24T12:13:28;29.70;95.70
59572;DHT22;70118;45.638;11.714;2023-07-24T12:15:55;29.70;95.20
59572;DHT22;70118;45.638;11.714;2023-07-24T12:18:34;29.70;95.30
59572;DHT22;70118;45.638;11.714;2023-07-24T12:21:20;29.80;96.20
59572;DHT22;70118;45.638;11.714;2023-07-24T12:23:52;29.70;95.10
59572;DHT22;70118;45.638;11.714;2023-07-24T12:26:18;29.70;94.20
59572;DHT22;70118;45.638;11.714;2023-07-24T12:28:44;29.70;93.70
59572;DHT22;70118;45.638;11.714;2023-07-24T12:31:10;29.80;93.10
59572;DHT22;70118;45.638;11.714;2023-07-24T12:33:36;29.80;93.20
59572;DHT22;70118;45.638;11.714;2023-07-24T12:36:02;29.80;92.60
59572;DHT22;70118;45.638;11.714;2023-07-24T12:38:28;29.90;92.30
59572;DHT22;70118;45.638;11.714;2023-07-24T12:40:55;29.80;93.10
59572;DHT22;70118;45.638;11.714;2023-07-24T12:43:20;29.80;94.50
59572;DHT22;70118;45.638;11.714;2023-07-24T12:45:46;29.70;96.00
59572;DHT22;70118;45.638;11.714;2023-07-24T12:48:12;29.60;95.50
59572;DHT22;70118;45.638;11.714;2023-07-24T12:50:38;29.50;94.30
59572;DHT22;70118;45.638;11.714;2023-07-24T12:53:04;29.50;91.30
59572;DHT22;70118;45.638;11.714;2023-07-24T12:55:30;29.40;90.80
59572;DHT22;70118;45.638;11.714;2023-07-24T12:57:56;29.40;90.60
59572;DHT22;70118;45.638;11.714;2023-07-24T13:00:23;29.40;90.30
59572;DHT22;70118;45.638;11.714;2023-07-24T13:02:49;29.50;90.60
59572;DHT22;70118;45.638;11.714;2023-07-24T13:05:15;29.40;90.70
59572;DHT22;70118;45.638;11.714;2023-07-24T13:07:41;29.50;90.80
59572;DHT22;70118;45.638;11.714;2023-07-24T13:10:19;29.50;90.50
59572;DHT22;70118;45.638;11.714;2023-07-24T13:12:52;29.60;90.40
59572;DHT22;70118;45.638;11.714;2023-07-24T13:15:21;29.60;90.10
59572;DHT22;70118;45.638;11.714;2023-07-24T13:17:48;29.70;90.00
59572;DHT22;70118;45.638;11.714;2023-07-24T13:20:14;29.70;90.50
59572;DHT22;70118;45.638;11.714;2023-07-24T13:22:40;29.60;89.70
59572;DHT22;70118;45.638;11.714;2023-07-24T13:25:08;29.60;89.70
59572;DHT22;70118;45.638;11.714;2023-07-24T13:27:35;29.60;89.70
59572;DHT22;70118;45.638;11.714;2023-07-24T13:30:00;29.70;89.40
59572;DHT22;70118;45.638;11.714;2023-07-24T13:32:26;29.70;89.20
59572;DHT22;70118;45.638;11.714;2023-07-24T13:34:52;29.80;89.20
59572;DHT22;70118;45.638;11.714;2023-07-24T13:37:18;29.80;88.80
59572;DHT22;70118;45.638;11.714;2023-07-24T13:39:44;29.80;88.90
59572;DHT22;70118;45.638;11.714;2023-07-24T13:42:10;29.90;88.90
59572;DHT22;70118;45.638;11.714;2023-07-24T13:44:36;29.80;88.90
59572;DHT22;70118;45.638;11.714;2023-07-24T13:47:02;29.70;89.00
59572;DHT22;70118;45.638;11.714;2023-07-24T13:49:28;29.80;89.00
59572;DHT22;70118;45.638;11.714;2023-07-24T13:51:54;29.80;88.90
59572;DHT22;70118;45.638;11.714;2023-07-24T13:54:21;29.80;89.00
59572;DHT22;70118;45.638;11.714;2023-07-24T13:56:47;29.80;89.10
59572;DHT22;70118;45.638;11.714;2023-07-24T13:59:12;29.80;89.50
59572;DHT22;70118;45.638;11.714;2023-07-24T14:01:38;29.90;89.90
59572;DHT22;70118;45.638;11.714;2023-07-24T14:04:07;29.80;90.50
59572;DHT22;70118;45.638;11.714;2023-07-24T14:06:37;29.80;90.20
59572;DHT22;70118;45.638;11.714;2023-07-24T14:09:03;29.80;90.40
59572;DHT22;70118;45.638;11.714;2023-07-24T14:11:29;29.80;90.40
59572;DHT22;70118;45.638;11.714;2023-07-24T14:13:55;29.80;90.60
59572;DHT22;70118;45.638;11.714;2023-07-24T14:16:21;29.80;90.60
59572;DHT22;70118;45.638;11.714;2023-07-24T14:18:47;29.70;90.60
59572;DHT22;70118;45.638;11.714;2023-07-24T14:21:13;29.70;90.30
59572;DHT22;70118;45.638;11.714;2023-07-24T14:23:38;29.70;90.10
59572;DHT22;70118;45.638;11.714;2023-07-24T14:26:04;29.80;90.00
59572;DHT22;70118;45.638;11.714;2023-07-24T14:28:30;29.70;90.00
59572;DHT22;70118;45.638;11.714;2023-07-24T14:30:56;29.70;89.70
59572;DHT22;70118;45.638;11.714;2023-07-24T14:33:22;29.70;89.40
59572;DHT22;70118;45.638;11.714;2023-07-24T14:35:48;29.70;89.10
59572;DHT22;70118;45.638;11.714;2023-07-24T14:38:14;29.70;89.00
59572;DHT22;70118;45.638;11.714;2023-07-24T14:40:39;29.80;88.60
59572;DHT22;70118;45.638;11.714;2023-07-24T14:43:05;29.70;88.50
59572;DHT22;70118;45.638;11.714;2023-07-24T14:45:31;29.70;88.40
59572;DHT22;70118;45.638;11.714;2023-07-24T14:47:57;29.70;88.30
59572;DHT22;70118;45.638;11.714;2023-07-24T14:50:23;29.80;88.20
59572;DHT22;70118;45.638;11.714;2023-07-24T14:52:49;29.80;88.20
59572;DHT22;70118;45.638;11.714;2023-07-24T14:55:15;29.80;87.80
59572;DHT22;70118;45.638;11.714;2023-07-24T14:57:41;29.70;87.70
59572;DHT22;70118;45.638;11.714;2023-07-24T15:00:08;29.70;87.70
59572;DHT22;70118;45.638;11.714;2023-07-24T15:02:34;29.70;87.60
59572;DHT22;70118;45.638;11.714;2023-07-24T15:05:00;29.80;87.60
59572;DHT22;70118;45.638;11.714;2023-07-24T15:07:26;29.70;87.60
59572;DHT22;70118;45.638;11.714;2023-07-24T15:09:51;29.70;87.40
59572;DHT22;70118;45.638;11.714;2023-07-24T15:12:17;29.80;87.50
59572;DHT22;70118;45.638;11.714;2023-07-24T15:14:43;29.80;87.40
59572;DHT22;70118;45.638;11.714;2023-07-24T15:17:09;29.70;87.40